createdAt,value
2023-09-20T00:00:34.831Z,21.20
2023-09-20T00:03:05.807Z,21.20
2023-09-20T00:05:34.537Z,21.20
2023-09-20T00:08:05.092Z,21.20
2023-09-20T00:10:33.922Z,21.10
2023-09-20T00:13:02.734Z,21.20
2023-09-20T00:15:34.072Z,21.10
2023-09-20T00:18:03.155Z,21.10
2023-09-20T00:20:34.795Z,21.10
2023-09-20T00:23:05.305Z,21.00
2023-09-20T00:25:34.155Z,21.00
2023-09-20T00:28:04.442Z,21.00
2023-09-20T00:30:33.093Z,21.00
2023-09-20T00:33:03.365Z,21.00
2023-09-20T00:35:34.164Z,21.00
2023-09-20T00:38:02.969Z,21.00
2023-09-20T00:40:31.534Z,21.00
2023-09-20T00:43:00.155Z,21.00
2023-09-20T00:45:28.785Z,21.00
2023-09-20T00:47:59.120Z,21.00
2023-09-20T00:50:29.540Z,20.90
2023-09-20T00:53:00.496Z,20.90
2023-09-20T00:55:31.796Z,20.90
2023-09-20T00:58:05.305Z,20.90
2023-09-20T01:00:35.278Z,20.90
2023-09-20T01:03:05.652Z,20.80
2023-09-20T01:05:38.008Z,20.90
2023-09-20T01:08:11.203Z,20.90
2023-09-20T01:10:40.509Z,20.90
2023-09-20T01:13:10.943Z,20.90
2023-09-20T01:15:40.662Z,20.90
2023-09-20T01:18:09.778Z,20.90
2023-09-20T01:20:41.505Z,20.90
2023-09-20T01:23:11.509Z,20.90
2023-09-20T01:25:41.329Z,20.90
2023-09-20T01:28:12.111Z,20.90
2023-09-20T01:30:43.034Z,20.90
2023-09-20T01:33:15.135Z,20.90
2023-09-20T01:35:46.804Z,20.90
2023-09-20T01:38:17.218Z,20.90
2023-09-20T01:40:48.141Z,20.90
2023-09-20T01:43:16.685Z,20.90
2023-09-20T01:45:46.001Z,20.90
2023-09-20T01:48:17.795Z,20.90
2023-09-20T01:50:48.632Z,20.90
2023-09-20T01:53:19.007Z,20.80
2023-09-20T01:55:48.826Z,20.80
2023-09-20T01:58:18.364Z,20.80
2023-09-20T02:00:52.000Z,20.80
2023-09-20T02:03:21.570Z,20.80
2023-09-20T02:05:51.540Z,20.80
2023-09-20T02:08:21.733Z,20.80
2023-09-20T02:10:50.413Z,20.70
2023-09-20T02:13:20.622Z,20.80
2023-09-20T02:15:49.484Z,20.70
2023-09-20T02:18:23.606Z,20.80
2023-09-20T02:20:52.427Z,20.80
2023-09-20T02:23:23.368Z,20.80
2023-09-20T02:25:56.377Z,20.80
2023-09-20T02:28:25.233Z,20.70
2023-09-20T02:30:54.241Z,20.70
2023-09-20T02:33:23.394Z,20.70
2023-09-20T02:35:52.427Z,20.70
2023-09-20T02:38:22.599Z,20.70
2023-09-20T02:40:51.789Z,20.70
2023-09-20T02:43:20.357Z,20.70
2023-09-20T02:45:49.079Z,20.70
2023-09-20T02:48:21.325Z,20.70
2023-09-20T02:50:51.942Z,20.70
2023-09-20T02:53:22.232Z,20.70
2023-09-20T02:55:51.505Z,20.70
2023-09-20T02:58:22.970Z,20.60
2023-09-20T03:00:52.316Z,20.70
2023-09-20T03:03:21.328Z,20.70
2023-09-20T03:05:50.722Z,20.60
2023-09-20T03:08:21.342Z,20.60
2023-09-20T03:10:54.711Z,20.60
2023-09-20T03:13:23.482Z,20.60
2023-09-20T03:15:56.209Z,20.60
2023-09-20T03:18:25.646Z,20.60
2023-09-20T03:20:54.737Z,20.60
2023-09-20T03:23:23.830Z,20.60
2023-09-20T03:25:54.438Z,20.60
2023-09-20T03:28:27.928Z,20.60
2023-09-20T03:30:57.872Z,20.60
2023-09-20T03:33:26.816Z,20.60
2023-09-20T03:35:55.694Z,20.50
2023-09-20T03:38:24.280Z,20.60
2023-09-20T03:40:54.781Z,20.60
2023-09-20T03:43:23.289Z,20.60
2023-09-20T03:45:53.958Z,20.60
2023-09-20T03:48:22.654Z,20.60
2023-09-20T03:50:51.325Z,20.60
2023-09-20T03:53:20.587Z,20.60
2023-09-20T03:59:28.229Z,20.60
2023-09-20T04:01:57.273Z,20.60
2023-09-20T04:04:28.338Z,20.60
2023-09-20T04:06:57.012Z,20.60
2023-09-20T04:09:27.922Z,20.60
2023-09-20T04:11:56.579Z,20.50
2023-09-20T04:14:27.278Z,20.50
2023-09-20T04:16:56.080Z,20.50
2023-09-20T04:19:26.095Z,20.50
2023-09-20T04:21:54.734Z,20.60
2023-09-20T04:24:24.355Z,20.50
2023-09-20T04:26:55.110Z,20.60
2023-09-20T04:29:29.862Z,20.60
2023-09-20T04:32:01.617Z,20.60
2023-09-20T04:34:30.894Z,20.60
2023-09-20T04:36:59.607Z,20.60
2023-09-20T04:39:28.518Z,20.60
2023-09-20T04:41:59.341Z,20.70
2023-09-20T04:44:59.495Z,20.70
2023-09-20T04:47:40.791Z,20.70
2023-09-20T04:50:15.901Z,20.70
2023-09-20T04:52:52.088Z,20.70
2023-09-20T04:55:21.135Z,20.80
2023-09-20T04:57:54.498Z,20.80
2023-09-20T05:00:34.895Z,20.80
2023-09-20T05:03:09.857Z,20.80
2023-09-20T05:05:38.775Z,20.90
2023-09-20T05:08:09.950Z,20.90
2023-09-20T05:10:41.658Z,20.90
2023-09-20T05:13:16.507Z,20.90
2023-09-20T05:15:49.918Z,21.00
2023-09-20T05:18:20.399Z,21.00
2023-09-20T05:20:50.515Z,21.00
2023-09-20T05:23:19.203Z,21.00
2023-09-20T05:25:49.931Z,21.10
2023-09-20T05:28:18.514Z,21.10
2023-09-20T05:30:51.771Z,21.10
2023-09-20T05:59:08.410Z,21.40
2023-09-20T06:01:41.307Z,21.50
2023-09-20T06:04:11.331Z,21.50
2023-09-20T06:06:41.085Z,21.50
2023-09-20T06:09:10.629Z,21.50
2023-09-20T06:11:39.712Z,21.60
2023-09-20T06:14:10.156Z,21.60
2023-09-20T06:16:38.814Z,21.60
2023-09-20T06:19:09.401Z,21.60
2023-09-20T06:21:39.721Z,21.70
2023-09-20T06:24:12.519Z,21.70
2023-09-20T06:26:42.829Z,21.70
2023-09-20T06:29:12.828Z,21.80
2023-09-20T06:31:42.056Z,21.80
2023-09-20T06:34:10.934Z,21.90
2023-09-20T06:36:39.524Z,21.80
2023-09-20T06:39:09.523Z,21.90
2023-09-20T06:41:39.486Z,21.90
2023-09-20T06:44:08.188Z,22.00
2023-09-20T06:46:38.587Z,22.00
2023-09-20T06:49:09.934Z,22.00
2023-09-20T06:51:38.927Z,22.00
2023-09-20T06:54:10.060Z,22.00
2023-09-20T06:56:38.669Z,22.00
2023-09-20T06:59:07.778Z,22.10
2023-09-20T07:01:37.679Z,22.10
2023-09-20T07:04:08.168Z,22.20
2023-09-20T07:06:46.341Z,22.20
2023-09-20T07:09:15.788Z,22.20
2023-09-20T07:11:46.452Z,22.20
2023-09-20T07:14:15.780Z,22.30
2023-09-20T07:16:46.313Z,22.30
2023-09-20T07:19:18.696Z,22.20
2023-09-20T07:21:47.868Z,22.30
2023-09-20T07:24:17.329Z,22.20
2023-09-20T07:26:48.198Z,22.30
2023-09-20T07:29:22.690Z,22.30
2023-09-20T07:31:52.946Z,22.30
2023-09-20T07:34:24.443Z,22.40
2023-09-20T07:36:58.292Z,22.40
2023-09-20T07:39:27.103Z,22.40
2023-09-20T07:41:59.673Z,22.40
2023-09-20T07:44:37.609Z,22.50
2023-09-20T07:47:08.189Z,22.50
2023-09-20T07:49:43.620Z,22.60
2023-09-20T07:52:13.554Z,22.60
2023-09-20T07:54:42.324Z,22.70
2023-09-20T07:57:14.567Z,22.80
2023-09-20T07:59:53.310Z,22.80
2023-09-20T08:02:26.062Z,22.80
2023-09-20T08:04:59.424Z,22.90
2023-09-20T08:07:28.224Z,22.90
2023-09-20T08:09:58.278Z,23.00
2023-09-20T08:12:27.016Z,23.00
2023-09-20T08:14:55.802Z,23.00
2023-09-20T08:17:46.448Z,23.10
2023-09-20T08:20:22.471Z,23.10
2023-09-20T08:23:08.625Z,23.10
2023-09-20T08:25:54.685Z,23.20
2023-09-20T08:28:40.940Z,23.20
2023-09-20T08:31:27.762Z,23.20
2023-09-20T08:34:14.967Z,23.20
2023-09-20T08:37:00.981Z,23.20
2023-09-20T08:39:48.318Z,23.20
2023-09-20T08:42:34.565Z,23.20
2023-09-20T08:45:28.781Z,23.20
2023-09-20T08:48:18.412Z,23.30
2023-09-20T08:51:06.944Z,23.30
2023-09-20T08:53:53.773Z,23.30
2023-09-20T08:56:40.229Z,23.30
2023-09-20T08:59:27.078Z,23.40
2023-09-20T09:01:56.171Z,23.40
2023-09-20T09:04:24.911Z,23.50
2023-09-20T09:06:55.477Z,23.60
2023-09-20T09:09:24.200Z,23.70
2023-09-20T09:11:52.843Z,23.80
2023-09-20T09:14:21.655Z,23.90
2023-09-20T09:16:50.365Z,24.00
2023-09-20T09:19:19.383Z,24.10
2023-09-20T09:21:48.248Z,24.20
2023-09-20T09:24:18.366Z,24.30
2023-09-20T09:26:48.269Z,24.40
2023-09-20T09:29:19.752Z,24.50
2023-09-20T09:31:51.288Z,24.60
2023-09-20T09:34:22.006Z,24.70
2023-09-20T09:36:52.279Z,24.80
2023-09-20T09:39:34.416Z,24.90
2023-09-20T09:42:45.499Z,25.00
2023-09-20T09:45:14.093Z,25.00
2023-09-20T09:47:43.520Z,25.20
2023-09-20T09:50:13.935Z,25.30
2023-09-20T09:52:44.687Z,25.40
2023-09-20T09:55:15.825Z,25.40
2023-09-20T09:57:45.504Z,25.50
2023-09-20T10:00:17.346Z,25.60
2023-09-20T10:02:48.376Z,25.70
2023-09-20T10:05:21.525Z,25.80
2023-09-20T10:08:02.743Z,25.90
2023-09-20T10:10:32.705Z,26.00
2023-09-20T10:13:04.550Z,26.10
2023-09-20T10:15:34.968Z,26.10
2023-09-20T10:18:03.623Z,26.20
2023-09-20T10:20:59.534Z,26.20
2023-09-20T10:23:29.464Z,26.20
2023-09-20T10:26:02.738Z,26.30
2023-09-20T10:28:40.249Z,26.40
2023-09-20T10:31:09.031Z,26.40
2023-09-20T10:33:47.101Z,26.50
2023-09-20T10:36:21.306Z,26.50
2023-09-20T10:38:50.503Z,26.60
2023-09-20T10:41:20.535Z,26.60
2023-09-20T10:43:56.034Z,26.60
2023-09-20T10:46:28.466Z,26.70
2023-09-20T10:48:58.000Z,26.80
2023-09-20T10:51:56.757Z,26.80
2023-09-20T10:54:27.904Z,26.90
2023-09-20T10:57:04.389Z,26.90
2023-09-20T10:59:33.901Z,27.00
2023-09-20T11:02:06.816Z,27.00
2023-09-20T11:04:35.462Z,27.00
2023-09-20T11:07:05.077Z,27.10
2023-09-20T11:09:35.301Z,27.10
2023-09-20T11:12:10.472Z,27.20
2023-09-20T11:14:42.365Z,27.30
2023-09-20T11:17:15.365Z,27.30
2023-09-20T11:19:44.851Z,27.30
2023-09-20T11:22:16.190Z,27.30
2023-09-20T11:24:45.089Z,27.40
2023-09-20T11:27:16.197Z,27.40
2023-09-20T11:29:46.052Z,27.50
2023-09-20T11:32:16.601Z,27.50
2023-09-20T11:34:46.494Z,27.60
2023-09-20T11:37:20.226Z,27.60
2023-09-20T11:39:49.328Z,27.70
2023-09-20T11:42:30.147Z,27.70
2023-09-20T11:45:22.670Z,27.80
2023-09-20T11:47:53.698Z,27.80
2023-09-20T11:50:26.397Z,27.90
2023-09-20T11:52:55.293Z,27.90
2023-09-20T11:55:24.435Z,27.90
2023-09-20T11:57:54.962Z,28.00
2023-09-20T12:00:29.305Z,28.00
2023-09-20T12:02:59.414Z,28.10
2023-09-20T12:05:31.680Z,28.10
2023-09-20T12:08:02.572Z,28.10
2023-09-20T12:10:33.149Z,28.10
2023-09-20T12:13:03.269Z,28.20
2023-09-20T12:15:34.645Z,28.30
2023-09-20T12:18:04.022Z,28.30
2023-09-20T12:20:32.552Z,28.40
2023-09-20T12:23:03.703Z,28.40
2023-09-20T12:25:32.676Z,28.40
2023-09-20T12:28:02.564Z,28.50
2023-09-20T12:30:31.057Z,28.50
2023-09-20T12:33:01.541Z,28.50
2023-09-20T12:35:34.654Z,28.60
2023-09-20T12:38:03.772Z,28.60
2023-09-20T12:40:32.254Z,28.60
2023-09-20T12:43:02.975Z,28.70
2023-09-20T12:45:31.737Z,28.70
2023-09-20T12:48:00.268Z,28.70
2023-09-20T12:50:34.167Z,28.70
2023-09-20T12:53:02.758Z,28.80
2023-09-20T12:55:32.495Z,28.80
2023-09-20T12:58:02.431Z,28.80
2023-09-20T13:00:45.636Z,28.80
2023-09-20T13:03:16.206Z,28.90
2023-09-20T13:05:47.536Z,28.90
2023-09-20T13:08:19.046Z,28.90
2023-09-20T13:10:52.827Z,28.90
2023-09-20T13:13:23.543Z,29.00
2023-09-20T13:15:53.865Z,29.00
2023-09-20T13:18:22.747Z,29.00
2023-09-20T13:20:53.543Z,29.10
2023-09-20T13:23:26.603Z,29.10
2023-09-20T13:25:55.218Z,29.20
2023-09-20T13:28:25.113Z,29.20
2023-09-20T13:30:53.997Z,29.30
2023-09-20T13:33:22.636Z,29.30
2023-09-20T13:35:51.326Z,29.40
2023-09-20T13:38:19.850Z,29.60
2023-09-20T13:40:48.489Z,29.60
2023-09-20T13:43:19.499Z,29.70
2023-09-20T13:45:50.213Z,29.80
2023-09-20T13:48:19.054Z,30.10
2023-09-20T13:50:47.726Z,30.90
2023-09-20T13:53:16.983Z,33.00
2023-09-20T13:55:47.668Z,34.60
2023-09-20T13:58:17.186Z,33.50
2023-09-20T14:00:45.802Z,32.70
2023-09-20T14:03:16.529Z,32.30
2023-09-20T14:05:45.323Z,31.90
2023-09-20T14:08:19.158Z,31.60
2023-09-20T14:10:48.136Z,31.40
2023-09-20T14:13:16.740Z,31.20
2023-09-20T14:15:46.491Z,31.00
2023-09-20T14:18:17.415Z,30.80
2023-09-20T14:20:49.085Z,30.60
2023-09-20T14:23:17.604Z,30.50
2023-09-20T14:25:48.694Z,30.40
2023-09-20T14:28:18.305Z,30.30
2023-09-20T14:30:46.588Z,30.20
2023-09-20T14:33:16.839Z,30.00
2023-09-20T14:35:45.557Z,29.90
2023-09-20T14:38:14.268Z,29.90
2023-09-20T14:40:43.202Z,29.80
2023-09-20T14:43:12.380Z,29.80
2023-09-20T14:45:41.190Z,29.70
2023-09-20T14:48:12.060Z,29.70
2023-09-20T14:50:42.504Z,29.60
2023-09-20T14:53:11.224Z,29.50
2023-09-20T14:55:40.342Z,29.40
2023-09-20T14:58:09.866Z,29.40
2023-09-20T15:00:40.016Z,29.30
2023-09-20T15:03:10.750Z,29.20
2023-09-20T15:05:40.327Z,29.20
2023-09-20T15:08:10.713Z,29.10
2023-09-20T15:10:43.934Z,29.00
2023-09-20T15:13:12.414Z,29.00
2023-09-20T15:15:41.339Z,29.00
2023-09-20T15:18:09.997Z,28.90
2023-09-20T15:20:38.596Z,28.80
2023-09-20T15:23:07.330Z,28.70
2023-09-20T15:25:38.468Z,28.60
2023-09-20T15:28:07.772Z,28.60
2023-09-20T15:30:38.277Z,28.50
2023-09-20T15:33:09.869Z,28.50
2023-09-20T15:35:38.542Z,28.40
2023-09-20T15:38:09.343Z,28.30
2023-09-20T15:40:47.465Z,28.30
2023-09-20T15:43:16.011Z,28.20
2023-09-20T16:12:46.152Z,27.60
2023-09-20T16:15:16.102Z,27.50
2023-09-20T16:17:45.057Z,27.50
2023-09-20T16:20:16.023Z,27.40
2023-09-20T16:22:47.743Z,27.40
2023-09-20T16:25:16.512Z,27.30
2023-09-20T16:27:47.064Z,27.20
2023-09-20T16:30:17.825Z,27.20
2023-09-20T16:32:46.848Z,27.20
2023-09-20T16:35:17.093Z,27.10
2023-09-20T16:37:46.255Z,27.10
2023-09-20T16:40:16.100Z,27.00
2023-09-20T16:42:47.031Z,26.90
2023-09-20T16:45:16.673Z,26.90
2023-09-20T16:47:46.689Z,26.80
2023-09-20T16:50:16.897Z,26.80
2023-09-20T16:52:47.074Z,26.80
2023-09-20T16:55:16.948Z,26.70
2023-09-20T16:57:48.406Z,26.60
2023-09-20T21:33:45.906Z,23.10
2023-09-20T21:36:14.663Z,23.00
2023-09-20T21:38:43.517Z,23.00
2023-09-20T21:41:12.936Z,23.00
2023-09-20T21:43:42.630Z,23.00
2023-09-20T21:46:11.051Z,22.90
2023-09-20T21:48:43.066Z,22.90
2023-09-20T21:51:13.803Z,22.90
2023-09-20T21:53:43.982Z,22.80
2023-09-20T21:56:12.584Z,22.80
2023-09-20T21:58:41.627Z,22.80
2023-09-20T22:01:12.209Z,22.80
2023-09-20T22:03:40.976Z,22.80
2023-09-20T22:06:10.084Z,22.70
2023-09-20T22:08:43.182Z,22.70
2023-09-20T22:11:14.550Z,22.70
2023-09-20T22:13:43.192Z,22.70
2023-09-20T22:16:11.651Z,22.60
2023-09-20T22:18:42.384Z,22.60
2023-09-20T22:21:14.025Z,22.60
2023-09-20T22:23:44.033Z,22.50
2023-09-20T22:26:16.087Z,22.50
2023-09-20T22:28:44.655Z,22.50
2023-09-20T22:31:19.548Z,22.50
2023-09-20T22:33:49.780Z,22.40
2023-09-20T22:36:18.829Z,22.40
2023-09-20T22:38:50.551Z,22.40
2023-09-20T22:41:18.990Z,22.40
2023-09-20T22:43:47.548Z,22.40
2023-09-20T22:46:17.729Z,22.40
2023-09-20T22:48:46.941Z,22.30
2023-09-20T22:51:17.688Z,22.30
2023-09-20T22:53:49.531Z,22.30
2023-09-20T22:56:19.413Z,22.30
2023-09-20T22:58:48.995Z,22.30
2023-09-20T23:01:19.649Z,22.30
2023-09-20T23:03:48.824Z,22.30
2023-09-20T23:06:19.532Z,22.20
2023-09-20T23:08:48.417Z,22.20
2023-09-20T23:11:22.457Z,22.20
2023-09-20T23:13:50.908Z,22.20
2023-09-20T23:16:26.886Z,22.10
2023-09-20T23:18:56.496Z,22.10
2023-09-20T23:21:26.188Z,22.10
2023-09-20T23:23:55.795Z,22.10
2023-09-20T23:26:26.353Z,22.10
2023-09-20T23:28:54.720Z,22.00
2023-09-20T23:31:29.401Z,22.00
2023-09-20T23:34:00.255Z,22.00
2023-09-20T23:36:28.716Z,22.00
2023-09-20T23:38:58.513Z,22.00
2023-09-20T23:41:29.021Z,22.00
2023-09-20T23:43:58.051Z,22.00
2023-09-20T23:46:28.413Z,21.90
2023-09-20T23:48:59.017Z,21.90
2023-09-20T23:51:28.881Z,21.90
2023-09-20T23:53:57.365Z,21.90
2023-09-20T23:56:27.267Z,21.90
2023-09-20T23:58:58.176Z,21.80
